Terminal Aerodrome Forecast
Issued by NWS Grand Forks, ND

Home | Current Version | Previous Version | Text Only | Print | Product List | Glossary Off
Versions: 1 2 3 4 5 6 7 8 9 10 11 12 13 14

000
FTUS43 KFGF 141700
TAFFAR
TAF
KFAR 141724Z 1418/1518 35016G23KT P6SM BKN040
      TEMPO 1418/1420 3SM -SHSN BKN023
     FM150100 34014KT P6SM FEW040
     FM150400 VRB05KT P6SM SKC
     FM151600 15007KT P6SM BKN200=

USA.gov is the U.S. government's official web portal to all federal, state and local government web resources and services.